sensor_id;sensor_type;location;lat;lon;timestamp;P1;durP1;ratioP1;P2;durP2;ratioP2
14030;SDS011;7090;49.436;8.490;2023-03-31T00:00:31;7.40;;;7.10;;
14030;SDS011;7090;49.436;8.490;2023-03-31T00:02:56;6.60;;;6.37;;
14030;SDS011;7090;49.436;8.490;2023-03-31T00:05:23;7.17;;;6.73;;
14030;SDS011;7090;49.436;8.490;2023-03-31T00:07:53;11.33;;;7.10;;
14030;SDS011;7090;49.436;8.490;2023-03-31T00:10:32;6.80;;;6.50;;
14030;SDS011;7090;49.436;8.490;2023-03-31T00:12:59;6.30;;;6.10;;
14030;SDS011;7090;49.436;8.490;2023-03-31T00:15:25;6.80;;;6.50;;
14030;SDS011;7090;49.436;8.490;2023-03-31T00:17:52;6.90;;;6.50;;
14030;SDS011;7090;49.436;8.490;2023-03-31T00:20:18;6.90;;;6.60;;
14030;SDS011;7090;49.436;8.490;2023-03-31T00:22:43;6.30;;;6.10;;
14030;SDS011;7090;49.436;8.490;2023-03-31T00:25:10;7.33;;;7.03;;
14030;SDS011;7090;49.436;8.490;2023-03-31T00:27:36;7.67;;;7.37;;
14030;SDS011;7090;49.436;8.490;2023-03-31T00:30:03;7.20;;;6.90;;
14030;SDS011;7090;49.436;8.490;2023-03-31T00:32:28;7.53;;;7.10;;
14030;SDS011;7090;49.436;8.490;2023-03-31T00:34:54;8.80;;;8.30;;
14030;SDS011;7090;49.436;8.490;2023-03-31T00:37:20;7.90;;;7.30;;
14030;SDS011;7090;49.436;8.490;2023-03-31T00:39:46;7.80;;;7.13;;
14030;SDS011;7090;49.436;8.490;2023-03-31T00:42:11;7.40;;;6.97;;
14030;SDS011;7090;49.436;8.490;2023-03-31T00:45:16;8.23;;;7.37;;
14030;SDS011;7090;49.436;8.490;2023-03-31T00:47:31;8.87;;;8.10;;
14030;SDS011;7090;49.436;8.490;2023-03-31T00:49:58;7.90;;;6.80;;
14030;SDS011;7090;49.436;8.490;2023-03-31T00:52:31;6.50;;;6.30;;
14030;SDS011;7090;49.436;8.490;2023-03-31T00:55:06;7.97;;;7.17;;
14030;SDS011;7090;49.436;8.490;2023-03-31T00:57:36;7.37;;;6.87;;
14030;SDS011;7090;49.436;8.490;2023-03-31T01:00:05;6.60;;;6.30;;
14030;SDS011;7090;49.436;8.490;2023-03-31T01:02:47;11.57;;;6.63;;
14030;SDS011;7090;49.436;8.490;2023-03-31T01:05:21;6.70;;;6.20;;
14030;SDS011;7090;49.436;8.490;2023-03-31T01:07:50;6.50;;;6.10;;
14030;SDS011;7090;49.436;8.490;2023-03-31T01:10:17;6.90;;;6.33;;
14030;SDS011;7090;49.436;8.490;2023-03-31T01:12:44;6.70;;;6.40;;
14030;SDS011;7090;49.436;8.490;2023-03-31T01:15:13;6.33;;;6.13;;
14030;SDS011;7090;49.436;8.490;2023-03-31T01:17:39;8.57;;;7.50;;
14030;SDS011;7090;49.436;8.490;2023-03-31T01:23:07;6.40;;;6.10;;
14030;SDS011;7090;49.436;8.490;2023-03-31T01:47:17;7.00;;;6.60;;
14030;SDS011;7090;49.436;8.490;2023-03-31T01:52:57;7.03;;;6.43;;
14030;SDS011;7090;49.436;8.490;2023-03-31T01:58:34;6.83;;;6.53;;
14030;SDS011;7090;49.436;8.490;2023-03-31T02:01:17;6.50;;;6.30;;
14030;SDS011;7090;49.436;8.490;2023-03-31T02:06:44;7.63;;;7.13;;
14030;SDS011;7090;49.436;8.490;2023-03-31T02:09:18;7.60;;;6.83;;
14030;SDS011;7090;49.436;8.490;2023-03-31T02:11:48;11.20;;;7.30;;
14030;SDS011;7090;49.436;8.490;2023-03-31T02:14:17;12.20;;;7.70;;
14030;SDS011;7090;49.436;8.490;2023-03-31T02:16:48;8.20;;;7.43;;
14030;SDS011;7090;49.436;8.490;2023-03-31T02:19:22;8.03;;;7.53;;
14030;SDS011;7090;49.436;8.490;2023-03-31T02:21:50;7.87;;;7.20;;
14030;SDS011;7090;49.436;8.490;2023-03-31T02:24:18;7.23;;;6.83;;
14030;SDS011;7090;49.436;8.490;2023-03-31T02:27:01;6.90;;;6.60;;
14030;SDS011;7090;49.436;8.490;2023-03-31T02:29:40;8.27;;;7.57;;
14030;SDS011;7090;49.436;8.490;2023-03-31T02:32:10;7.57;;;6.97;;
14030;SDS011;7090;49.436;8.490;2023-03-31T02:34:44;7.33;;;6.93;;
14030;SDS011;7090;49.436;8.490;2023-03-31T02:37:10;7.70;;;7.20;;
14030;SDS011;7090;49.436;8.490;2023-03-31T02:39:37;7.20;;;6.80;;
14030;SDS011;7090;49.436;8.490;2023-03-31T02:42:07;7.00;;;6.60;;
14030;SDS011;7090;49.436;8.490;2023-03-31T02:44:33;7.97;;;7.00;;
14030;SDS011;7090;49.436;8.490;2023-03-31T02:47:03;6.90;;;6.60;;
14030;SDS011;7090;49.436;8.490;2023-03-31T02:49:34;6.77;;;6.57;;
14030;SDS011;7090;49.436;8.490;2023-03-31T02:54:57;7.60;;;6.90;;
14030;SDS011;7090;49.436;8.490;2023-03-31T03:04:06;7.00;;;6.50;;
14030;SDS011;7090;49.436;8.490;2023-03-31T03:17:38;7.37;;;6.90;;
14030;SDS011;7090;49.436;8.490;2023-03-31T03:20:07;7.03;;;6.53;;
14030;SDS011;7090;49.436;8.490;2023-03-31T03:22:34;6.83;;;6.23;;
14030;SDS011;7090;49.436;8.490;2023-03-31T03:25:01;6.27;;;6.07;;
14030;SDS011;7090;49.436;8.490;2023-03-31T03:27:27;16.33;;;6.87;;
14030;SDS011;7090;49.436;8.490;2023-03-31T03:29:53;6.90;;;6.50;;
14030;SDS011;7090;49.436;8.490;2023-03-31T03:32:18;6.73;;;6.43;;
14030;SDS011;7090;49.436;8.490;2023-03-31T03:34:44;7.13;;;6.67;;
14030;SDS011;7090;49.436;8.490;2023-03-31T03:37:09;7.20;;;6.90;;
14030;SDS011;7090;49.436;8.490;2023-03-31T03:39:35;6.80;;;6.60;;
14030;SDS011;7090;49.436;8.490;2023-03-31T03:42:01;6.80;;;6.60;;
14030;SDS011;7090;49.436;8.490;2023-03-31T03:44:27;7.80;;;7.10;;
14030;SDS011;7090;49.436;8.490;2023-03-31T03:46:53;7.20;;;6.90;;
14030;SDS011;7090;49.436;8.490;2023-03-31T03:49:19;7.10;;;6.70;;
14030;SDS011;7090;49.436;8.490;2023-03-31T03:51:44;7.70;;;6.90;;
14030;SDS011;7090;49.436;8.490;2023-03-31T03:54:10;7.63;;;7.03;;
14030;SDS011;7090;49.436;8.490;2023-03-31T03:56:36;6.80;;;6.50;;
14030;SDS011;7090;49.436;8.490;2023-03-31T03:59:02;9.00;;;7.00;;
14030;SDS011;7090;49.436;8.490;2023-03-31T04:01:27;7.17;;;6.87;;
14030;SDS011;7090;49.436;8.490;2023-03-31T04:03:53;7.33;;;6.73;;
14030;SDS011;7090;49.436;8.490;2023-03-31T04:06:18;7.20;;;6.50;;
14030;SDS011;7090;49.436;8.490;2023-03-31T04:08:44;7.17;;;6.70;;
14030;SDS011;7090;49.436;8.490;2023-03-31T04:11:14;7.70;;;7.30;;
14030;SDS011;7090;49.436;8.490;2023-03-31T04:13:44;7.03;;;6.50;;
14030;SDS011;7090;49.436;8.490;2023-03-31T04:16:11;10.80;;;6.77;;
14030;SDS011;7090;49.436;8.490;2023-03-31T04:18:37;6.43;;;6.13;;
14030;SDS011;7090;49.436;8.490;2023-03-31T04:21:06;6.90;;;6.40;;
14030;SDS011;7090;49.436;8.490;2023-03-31T04:23:46;7.17;;;6.77;;
14030;SDS011;7090;49.436;8.490;2023-03-31T04:26:15;8.70;;;6.70;;
14030;SDS011;7090;49.436;8.490;2023-03-31T04:28:42;7.60;;;7.03;;
14030;SDS011;7090;49.436;8.490;2023-03-31T04:31:10;7.20;;;6.90;;
14030;SDS011;7090;49.436;8.490;2023-03-31T04:33:49;8.07;;;7.60;;
14030;SDS011;7090;49.436;8.490;2023-03-31T04:36:18;8.15;;;7.63;;
14030;SDS011;7090;49.436;8.490;2023-03-31T04:38:44;8.47;;;7.77;;
14030;SDS011;7090;49.436;8.490;2023-03-31T04:41:14;7.40;;;6.83;;
14030;SDS011;7090;49.436;8.490;2023-03-31T04:43:39;6.77;;;6.47;;
14030;SDS011;7090;49.436;8.490;2023-03-31T04:46:05;9.77;;;6.97;;
14030;SDS011;7090;49.436;8.490;2023-03-31T04:51:43;7.60;;;7.13;;
14030;SDS011;7090;49.436;8.490;2023-03-31T04:54:09;7.93;;;7.27;;
14030;SDS011;7090;49.436;8.490;2023-03-31T04:56:35;7.60;;;7.20;;
14030;SDS011;7090;49.436;8.490;2023-03-31T04:59:00;8.07;;;7.53;;
14030;SDS011;7090;49.436;8.490;2023-03-31T05:01:28;7.93;;;7.53;;
14030;SDS011;7090;49.436;8.490;2023-03-31T05:03:57;8.13;;;7.70;;
14030;SDS011;7090;49.436;8.490;2023-03-31T05:06:23;7.80;;;7.40;;
14030;SDS011;7090;49.436;8.490;2023-03-31T05:08:49;7.87;;;7.30;;
14030;SDS011;7090;49.436;8.490;2023-03-31T05:11:15;7.33;;;7.03;;
14030;SDS011;7090;49.436;8.490;2023-03-31T05:13:40;7.80;;;7.50;;
14030;SDS011;7090;49.436;8.490;2023-03-31T05:16:06;8.00;;;7.57;;
14030;SDS011;7090;49.436;8.490;2023-03-31T05:18:38;8.37;;;7.97;;
14030;SDS011;7090;49.436;8.490;2023-03-31T05:21:08;8.03;;;7.40;;
14030;SDS011;7090;49.436;8.490;2023-03-31T05:23:41;8.23;;;7.53;;
14030;SDS011;7090;49.436;8.490;2023-03-31T05:26:08;10.63;;;7.73;;
14030;SDS011;7090;49.436;8.490;2023-03-31T05:28:34;7.90;;;7.50;;
14030;SDS011;7090;49.436;8.490;2023-03-31T05:31:00;7.37;;;7.07;;
14030;SDS011;7090;49.436;8.490;2023-03-31T05:33:27;7.73;;;7.33;;
14030;SDS011;7090;49.436;8.490;2023-03-31T05:35:53;7.67;;;7.27;;
14030;SDS011;7090;49.436;8.490;2023-03-31T05:38:19;7.50;;;7.07;;
14030;SDS011;7090;49.436;8.490;2023-03-31T05:40:46;8.33;;;7.70;;
14030;SDS011;7090;49.436;8.490;2023-03-31T05:43:12;8.13;;;7.70;;
14030;SDS011;7090;49.436;8.490;2023-03-31T05:45:37;7.83;;;7.33;;
14030;SDS011;7090;49.436;8.490;2023-03-31T05:48:03;7.40;;;6.87;;
14030;SDS011;7090;49.436;8.490;2023-03-31T05:50:29;7.47;;;6.83;;
14030;SDS011;7090;49.436;8.490;2023-03-31T05:52:54;8.23;;;7.50;;
14030;SDS011;7090;49.436;8.490;2023-03-31T05:55:21;8.73;;;7.00;;
14030;SDS011;7090;49.436;8.490;2023-03-31T05:57:47;7.50;;;6.87;;
14030;SDS011;7090;49.436;8.490;2023-03-31T06:00:13;7.90;;;7.30;;
14030;SDS011;7090;49.436;8.490;2023-03-31T06:02:39;7.47;;;6.77;;
14030;SDS011;7090;49.436;8.490;2023-03-31T06:05:05;7.00;;;6.53;;
14030;SDS011;7090;49.436;8.490;2023-03-31T06:07:31;5.80;;;5.57;;
14030;SDS011;7090;49.436;8.490;2023-03-31T06:09:56;6.03;;;5.63;;
14030;SDS011;7090;49.436;8.490;2023-03-31T06:12:22;8.53;;;6.33;;
14030;SDS011;7090;49.436;8.490;2023-03-31T06:14:47;4.93;;;4.67;;
14030;SDS011;7090;49.436;8.490;2023-03-31T06:17:13;6.33;;;5.87;;
14030;SDS011;7090;49.436;8.490;2023-03-31T06:19:38;5.23;;;5.03;;
14030;SDS011;7090;49.436;8.490;2023-03-31T06:22:04;5.77;;;5.47;;
14030;SDS011;7090;49.436;8.490;2023-03-31T06:24:30;6.87;;;6.27;;
14030;SDS011;7090;49.436;8.490;2023-03-31T06:26:55;7.80;;;6.23;;
14030;SDS011;7090;49.436;8.490;2023-03-31T06:29:21;5.87;;;5.47;;
14030;SDS011;7090;49.436;8.490;2023-03-31T06:31:46;6.20;;;5.67;;
14030;SDS011;7090;49.436;8.490;2023-03-31T06:34:12;5.97;;;5.33;;
14030;SDS011;7090;49.436;8.490;2023-03-31T06:36:37;4.83;;;4.53;;
14030;SDS011;7090;49.436;8.490;2023-03-31T06:39:03;4.63;;;4.33;;
14030;SDS011;7090;49.436;8.490;2023-03-31T06:41:28;6.00;;;5.60;;
14030;SDS011;7090;49.436;8.490;2023-03-31T06:43:55;6.87;;;5.00;;
14030;SDS011;7090;49.436;8.490;2023-03-31T06:46:21;5.33;;;4.67;;
14030;SDS011;7090;49.436;8.490;2023-03-31T06:48:46;4.70;;;4.27;;
14030;SDS011;7090;49.436;8.490;2023-03-31T06:51:12;8.03;;;6.57;;
14030;SDS011;7090;49.436;8.490;2023-03-31T06:53:42;8.17;;;5.87;;
14030;SDS011;7090;49.436;8.490;2023-03-31T06:56:07;6.53;;;6.00;;
14030;SDS011;7090;49.436;8.490;2023-03-31T06:58:33;8.27;;;6.80;;
14030;SDS011;7090;49.436;8.490;2023-03-31T07:01:00;5.43;;;5.00;;
14030;SDS011;7090;49.436;8.490;2023-03-31T07:03:27;6.20;;;5.77;;
14030;SDS011;7090;49.436;8.490;2023-03-31T07:05:54;6.80;;;6.20;;
14030;SDS011;7090;49.436;8.490;2023-03-31T07:08:20;5.90;;;5.53;;
14030;SDS011;7090;49.436;8.490;2023-03-31T07:10:46;8.37;;;6.20;;
14030;SDS011;7090;49.436;8.490;2023-03-31T07:13:16;5.47;;;5.07;;
14030;SDS011;7090;49.436;8.490;2023-03-31T07:15:42;5.77;;;5.27;;
14030;SDS011;7090;49.436;8.490;2023-03-31T07:18:10;6.77;;;6.03;;
14030;SDS011;7090;49.436;8.490;2023-03-31T07:20:36;7.70;;;6.40;;
14030;SDS011;7090;49.436;8.490;2023-03-31T07:23:03;7.77;;;6.57;;
14030;SDS011;7090;49.436;8.490;2023-03-31T07:25:29;7.53;;;6.37;;
14030;SDS011;7090;49.436;8.490;2023-03-31T07:27:55;9.77;;;6.40;;
14030;SDS011;7090;49.436;8.490;2023-03-31T07:30:21;7.37;;;6.40;;
14030;SDS011;7090;49.436;8.490;2023-03-31T07:32:48;5.60;;;5.13;;
14030;SDS011;7090;49.436;8.490;2023-03-31T07:35:15;10.70;;;7.70;;
14030;SDS011;7090;49.436;8.490;2023-03-31T07:37:42;10.50;;;7.63;;
14030;SDS011;7090;49.436;8.490;2023-03-31T07:40:13;9.67;;;8.30;;
14030;SDS011;7090;49.436;8.490;2023-03-31T07:42:41;7.03;;;6.60;;
14030;SDS011;7090;49.436;8.490;2023-03-31T07:45:08;7.87;;;7.17;;
14030;SDS011;7090;49.436;8.490;2023-03-31T07:47:34;8.63;;;7.83;;
14030;SDS011;7090;49.436;8.490;2023-03-31T07:50:00;11.20;;;8.70;;
14030;SDS011;7090;49.436;8.490;2023-03-31T07:52:27;10.43;;;9.30;;
14030;SDS011;7090;49.436;8.490;2023-03-31T07:54:52;8.97;;;7.87;;
14030;SDS011;7090;49.436;8.490;2023-03-31T07:57:18;7.63;;;7.07;;
14030;SDS011;7090;49.436;8.490;2023-03-31T07:59:44;7.57;;;7.03;;
14030;SDS011;7090;49.436;8.490;2023-03-31T08:02:11;8.63;;;7.83;;
14030;SDS011;7090;49.436;8.490;2023-03-31T08:04:38;9.07;;;8.13;;
14030;SDS011;7090;49.436;8.490;2023-03-31T08:07:06;8.00;;;7.37;;
14030;SDS011;7090;49.436;8.490;2023-03-31T08:09:33;9.67;;;7.30;;
14030;SDS011;7090;49.436;8.490;2023-03-31T08:11:58;8.73;;;7.77;;
14030;SDS011;7090;49.436;8.490;2023-03-31T08:14:24;12.33;;;6.23;;
14030;SDS011;7090;49.436;8.490;2023-03-31T08:16:50;6.80;;;6.30;;
14030;SDS011;7090;49.436;8.490;2023-03-31T08:19:17;7.83;;;5.90;;
14030;SDS011;7090;49.436;8.490;2023-03-31T08:21:42;7.80;;;6.50;;
14030;SDS011;7090;49.436;8.490;2023-03-31T08:24:08;6.83;;;6.40;;
14030;SDS011;7090;49.436;8.490;2023-03-31T08:26:33;13.00;;;7.30;;
14030;SDS011;7090;49.436;8.490;2023-03-31T08:28:59;7.73;;;7.10;;
14030;SDS011;7090;49.436;8.490;2023-03-31T08:31:25;6.57;;;6.03;;
14030;SDS011;7090;49.436;8.490;2023-03-31T08:33:53;7.27;;;6.57;;
14030;SDS011;7090;49.436;8.490;2023-03-31T08:36:19;5.97;;;5.27;;
14030;SDS011;7090;49.436;8.490;2023-03-31T08:38:44;7.57;;;6.97;;
14030;SDS011;7090;49.436;8.490;2023-03-31T08:41:16;7.60;;;7.00;;
14030;SDS011;7090;49.436;8.490;2023-03-31T08:43:49;8.37;;;7.57;;
14030;SDS011;7090;49.436;8.490;2023-03-31T08:46:17;7.33;;;6.60;;
14030;SDS011;7090;49.436;8.490;2023-03-31T08:48:44;6.40;;;6.00;;
14030;SDS011;7090;49.436;8.490;2023-03-31T08:51:19;8.67;;;7.80;;
14030;SDS011;7090;49.436;8.490;2023-03-31T08:56:45;7.93;;;7.10;;
14030;SDS011;7090;49.436;8.490;2023-03-31T08:59:16;9.77;;;8.60;;
14030;SDS011;7090;49.436;8.490;2023-03-31T09:02:02;8.27;;;7.67;;
14030;SDS011;7090;49.436;8.490;2023-03-31T09:10:23;11.13;;;7.13;;
14030;SDS011;7090;49.436;8.490;2023-03-31T09:16:04;8.00;;;7.30;;
14030;SDS011;7090;49.436;8.490;2023-03-31T09:18:36;7.73;;;7.13;;
14030;SDS011;7090;49.436;8.490;2023-03-31T09:21:11;7.00;;;6.67;;
14030;SDS011;7090;49.436;8.490;2023-03-31T09:23:43;6.50;;;6.30;;
14030;SDS011;7090;49.436;8.490;2023-03-31T09:26:19;8.17;;;7.37;;
14030;SDS011;7090;49.436;8.490;2023-03-31T09:28:51;8.33;;;7.60;;
14030;SDS011;7090;49.436;8.490;2023-03-31T09:31:19;7.00;;;6.60;;
14030;SDS011;7090;49.436;8.490;2023-03-31T09:33:46;9.17;;;7.00;;
14030;SDS011;7090;49.436;8.490;2023-03-31T09:36:13;8.10;;;7.43;;
14030;SDS011;7090;49.436;8.490;2023-03-31T09:38:44;7.67;;;7.17;;
14030;SDS011;7090;49.436;8.490;2023-03-31T09:41:11;6.00;;;5.80;;
14030;SDS011;7090;49.436;8.490;2023-03-31T09:43:40;7.00;;;6.37;;
14030;SDS011;7090;49.436;8.490;2023-03-31T09:46:17;6.80;;;6.50;;
14030;SDS011;7090;49.436;8.490;2023-03-31T09:48:52;16.53;;;15.20;;
14030;SDS011;7090;49.436;8.490;2023-03-31T09:51:25;14.40;;;13.37;;
14030;SDS011;7090;49.436;8.490;2023-03-31T09:53:56;13.83;;;13.13;;
14030;SDS011;7090;49.436;8.490;2023-03-31T09:56:32;14.00;;;13.30;;
14030;SDS011;7090;49.436;8.490;2023-03-31T09:59:12;12.70;;;12.20;;
14030;SDS011;7090;49.436;8.490;2023-03-31T10:01:46;11.87;;;11.37;;
14030;SDS011;7090;49.436;8.490;2023-03-31T10:04:17;11.70;;;11.20;;
14030;SDS011;7090;49.436;8.490;2023-03-31T10:06:47;11.20;;;10.70;;
14030;SDS011;7090;49.436;8.490;2023-03-31T10:09:16;10.03;;;9.63;;
14030;SDS011;7090;49.436;8.490;2023-03-31T10:11:52;10.30;;;9.90;;
14030;SDS011;7090;49.436;8.490;2023-03-31T10:14:24;8.60;;;8.30;;
14030;SDS011;7090;49.436;8.490;2023-03-31T10:17:04;8.63;;;8.33;;
14030;SDS011;7090;49.436;8.490;2023-03-31T10:19:34;9.97;;;9.23;;
14030;SDS011;7090;49.436;8.490;2023-03-31T10:22:05;8.67;;;8.37;;
14030;SDS011;7090;49.436;8.490;2023-03-31T10:24:43;8.90;;;8.50;;
14030;SDS011;7090;49.436;8.490;2023-03-31T10:27:18;9.73;;;8.93;;
14030;SDS011;7090;49.436;8.490;2023-03-31T10:29:59;12.60;;;11.53;;
14030;SDS011;7090;49.436;8.490;2023-03-31T10:32:27;11.37;;;10.57;;
14030;SDS011;7090;49.436;8.490;2023-03-31T10:34:55;10.60;;;10.10;;
14030;SDS011;7090;49.436;8.490;2023-03-31T10:37:22;9.20;;;8.90;;
14030;SDS011;7090;49.436;8.490;2023-03-31T10:40:25;10.03;;;9.37;;
14030;SDS011;7090;49.436;8.490;2023-03-31T10:42:56;9.83;;;9.23;;
14030;SDS011;7090;49.436;8.490;2023-03-31T10:45:26;9.10;;;8.33;;
14030;SDS011;7090;49.436;8.490;2023-03-31T10:47:57;8.60;;;7.80;;
14030;SDS011;7090;49.436;8.490;2023-03-31T10:50:28;8.60;;;7.80;;
14030;SDS011;7090;49.436;8.490;2023-03-31T10:53:00;9.83;;;7.40;;
14030;SDS011;7090;49.436;8.490;2023-03-31T10:55:30;7.72;;;7.22;;
14030;SDS011;7090;49.436;8.490;2023-03-31T10:58:03;7.97;;;7.50;;
14030;SDS011;7090;49.436;8.490;2023-03-31T11:00:51;8.57;;;8.07;;
14030;SDS011;7090;49.436;8.490;2023-03-31T11:03:37;7.40;;;7.10;;
14030;SDS011;7090;49.436;8.490;2023-03-31T11:11:45;7.63;;;6.90;;
14030;SDS011;7090;49.436;8.490;2023-03-31T11:17:30;7.07;;;6.60;;
14030;SDS011;7090;49.436;8.490;2023-03-31T11:23:01;7.20;;;6.70;;
14030;SDS011;7090;49.436;8.490;2023-03-31T11:37:13;8.37;;;8.07;;
14030;SDS011;7090;49.436;8.490;2023-03-31T11:42:34;7.80;;;7.50;;
14030;SDS011;7090;49.436;8.490;2023-03-31T11:45:20;8.27;;;7.70;;
14030;SDS011;7090;49.436;8.490;2023-03-31T11:47:58;8.63;;;7.10;;
14030;SDS011;7090;49.436;8.490;2023-03-31T11:50:29;7.50;;;6.75;;
14030;SDS011;7090;49.436;8.490;2023-03-31T11:53:04;7.17;;;6.50;;
14030;SDS011;7090;49.436;8.490;2023-03-31T11:55:42;9.77;;;7.17;;
14030;SDS011;7090;49.436;8.490;2023-03-31T11:58:14;7.97;;;7.20;;
14030;SDS011;7090;49.436;8.490;2023-03-31T12:06:08;7.57;;;6.97;;
14030;SDS011;7090;49.436;8.490;2023-03-31T12:17:08;7.27;;;6.77;;
14030;SDS011;7090;49.436;8.490;2023-03-31T12:19:44;8.97;;;7.10;;
14030;SDS011;7090;49.436;8.490;2023-03-31T12:22:19;8.10;;;6.37;;
14030;SDS011;7090;49.436;8.490;2023-03-31T12:24:46;6.87;;;6.47;;
14030;SDS011;7090;49.436;8.490;2023-03-31T12:30:14;6.60;;;6.30;;
14030;SDS011;7090;49.436;8.490;2023-03-31T12:33:33;6.83;;;6.30;;
14030;SDS011;7090;49.436;8.490;2023-03-31T12:38:26;6.13;;;5.83;;
14030;SDS011;7090;49.436;8.490;2023-03-31T12:44:22;6.33;;;6.00;;
14030;SDS011;7090;49.436;8.490;2023-03-31T13:01:05;6.45;;;6.15;;
14030;SDS011;7090;49.436;8.490;2023-03-31T13:03:42;6.35;;;6.05;;
14030;SDS011;7090;49.436;8.490;2023-03-31T13:16:53;7.07;;;6.70;;
14030;SDS011;7090;49.436;8.490;2023-03-31T13:19:56;7.15;;;6.65;;
14030;SDS011;7090;49.436;8.490;2023-03-31T13:22:48;6.82;;;6.53;;
14030;SDS011;7090;49.436;8.490;2023-03-31T13:25:31;6.67;;;6.23;;
14030;SDS011;7090;49.436;8.490;2023-03-31T13:28:13;6.82;;;6.30;;
14030;SDS011;7090;49.436;8.490;2023-03-31T13:33:14;6.80;;;6.40;;
14030;SDS011;7090;49.436;8.490;2023-03-31T13:35:47;6.40;;;6.05;;
14030;SDS011;7090;49.436;8.490;2023-03-31T13:47:02;7.78;;;6.70;;
14030;SDS011;7090;49.436;8.490;2023-03-31T13:55:22;7.27;;;6.77;;
14030;SDS011;7090;49.436;8.490;2023-03-31T14:09:21;14.80;;;13.90;;
14030;SDS011;7090;49.436;8.490;2023-03-31T14:11:50;13.43;;;12.17;;
14030;SDS011;7090;49.436;8.490;2023-03-31T14:14:16;11.70;;;11.20;;
14030;SDS011;7090;49.436;8.490;2023-03-31T14:19:13;12.80;;;12.13;;
14030;SDS011;7090;49.436;8.490;2023-03-31T14:22:06;11.90;;;11.20;;
14030;SDS011;7090;49.436;8.490;2023-03-31T14:24:43;12.23;;;11.27;;
14030;SDS011;7090;49.436;8.490;2023-03-31T14:30:29;9.17;;;8.67;;
14030;SDS011;7090;49.436;8.490;2023-03-31T14:38:37;8.90;;;8.20;;
14030;SDS011;7090;49.436;8.490;2023-03-31T14:41:03;8.07;;;7.53;;
14030;SDS011;7090;49.436;8.490;2023-03-31T14:43:29;8.00;;;7.60;;
14030;SDS011;7090;49.436;8.490;2023-03-31T14:46:04;7.20;;;6.90;;
14030;SDS011;7090;49.436;8.490;2023-03-31T14:48:42;8.40;;;7.80;;
14030;SDS011;7090;49.436;8.490;2023-03-31T14:51:10;6.97;;;6.73;;
14030;SDS011;7090;49.436;8.490;2023-03-31T14:53:38;7.10;;;6.77;;
14030;SDS011;7090;49.436;8.490;2023-03-31T14:56:04;7.20;;;6.90;;
14030;SDS011;7090;49.436;8.490;2023-03-31T14:58:34;7.68;;;7.00;;
14030;SDS011;7090;49.436;8.490;2023-03-31T15:01:05;8.13;;;7.33;;
14030;SDS011;7090;49.436;8.490;2023-03-31T15:03:33;8.13;;;7.70;;
14030;SDS011;7090;49.436;8.490;2023-03-31T15:06:02;8.70;;;8.10;;
14030;SDS011;7090;49.436;8.490;2023-03-31T15:08:29;8.10;;;7.70;;
14030;SDS011;7090;49.436;8.490;2023-03-31T15:11:00;8.52;;;7.93;;
14030;SDS011;7090;49.436;8.490;2023-03-31T15:16:02;8.47;;;7.87;;
14030;SDS011;7090;49.436;8.490;2023-03-31T15:18:55;8.50;;;7.90;;
14030;SDS011;7090;49.436;8.490;2023-03-31T15:21:23;8.37;;;7.70;;
14030;SDS011;7090;49.436;8.490;2023-03-31T15:23:50;7.87;;;7.37;;
14030;SDS011;7090;49.436;8.490;2023-03-31T15:26:17;7.80;;;7.30;;
14030;SDS011;7090;49.436;8.490;2023-03-31T15:28:52;8.63;;;7.90;;
14030;SDS011;7090;49.436;8.490;2023-03-31T15:31:22;8.10;;;7.80;;
14030;SDS011;7090;49.436;8.490;2023-03-31T15:33:51;8.23;;;7.80;;
14030;SDS011;7090;49.436;8.490;2023-03-31T15:36:17;8.18;;;7.68;;
14030;SDS011;7090;49.436;8.490;2023-03-31T15:38:45;8.30;;;7.80;;
14030;SDS011;7090;49.436;8.490;2023-03-31T15:41:12;7.20;;;6.90;;
14030;SDS011;7090;49.436;8.490;2023-03-31T15:43:49;8.57;;;7.97;;
14030;SDS011;7090;49.436;8.490;2023-03-31T15:49:17;8.30;;;7.10;;
14030;SDS011;7090;49.436;8.490;2023-03-31T15:51:46;7.47;;;7.00;;
14030;SDS011;7090;49.436;8.490;2023-03-31T15:54:28;8.10;;;7.50;;
14030;SDS011;7090;49.436;8.490;2023-03-31T15:56:55;7.63;;;7.10;;
14030;SDS011;7090;49.436;8.490;2023-03-31T15:59:42;7.23;;;6.93;;
14030;SDS011;7090;49.436;8.490;2023-03-31T16:02:29;7.80;;;7.20;;
14030;SDS011;7090;49.436;8.490;2023-03-31T16:05:02;8.18;;;7.40;;
14030;SDS011;7090;49.436;8.490;2023-03-31T16:07:29;7.17;;;6.80;;
14030;SDS011;7090;49.436;8.490;2023-03-31T16:10:07;6.97;;;6.50;;
14030;SDS011;7090;49.436;8.490;2023-03-31T16:12:42;7.13;;;6.77;;
14030;SDS011;7090;49.436;8.490;2023-03-31T16:15:17;7.57;;;6.67;;
14030;SDS011;7090;49.436;8.490;2023-03-31T16:17:50;7.43;;;6.83;;
14030;SDS011;7090;49.436;8.490;2023-03-31T16:20:19;6.97;;;6.63;;
14030;SDS011;7090;49.436;8.490;2023-03-31T16:22:51;7.00;;;6.70;;
14030;SDS011;7090;49.436;8.490;2023-03-31T16:25:20;9.50;;;7.10;;
14030;SDS011;7090;49.436;8.490;2023-03-31T16:27:50;7.60;;;6.90;;
14030;SDS011;7090;49.436;8.490;2023-03-31T16:30:22;7.37;;;6.80;;
14030;SDS011;7090;49.436;8.490;2023-03-31T16:33:05;7.63;;;6.90;;
14030;SDS011;7090;49.436;8.490;2023-03-31T16:35:34;8.13;;;7.57;;
14030;SDS011;7090;49.436;8.490;2023-03-31T16:38:02;7.87;;;7.23;;
14030;SDS011;7090;49.436;8.490;2023-03-31T16:40:29;7.70;;;7.20;;
14030;SDS011;7090;49.436;8.490;2023-03-31T16:43:06;8.17;;;7.47;;
14030;SDS011;7090;49.436;8.490;2023-03-31T16:45:32;6.97;;;6.57;;
14030;SDS011;7090;49.436;8.490;2023-03-31T16:47:58;8.25;;;7.60;;
14030;SDS011;7090;49.436;8.490;2023-03-31T16:50:23;7.17;;;6.67;;
14030;SDS011;7090;49.436;8.490;2023-03-31T16:52:49;7.83;;;6.97;;
14030;SDS011;7090;49.436;8.490;2023-03-31T16:55:15;8.23;;;7.40;;
14030;SDS011;7090;49.436;8.490;2023-03-31T16:57:41;7.27;;;6.80;;
14030;SDS011;7090;49.436;8.490;2023-03-31T17:00:06;8.43;;;7.67;;
14030;SDS011;7090;49.436;8.490;2023-03-31T17:02:33;6.83;;;6.37;;
14030;SDS011;7090;49.436;8.490;2023-03-31T17:04:58;6.80;;;6.17;;
14030;SDS011;7090;49.436;8.490;2023-03-31T17:07:24;7.00;;;6.40;;
14030;SDS011;7090;49.436;8.490;2023-03-31T17:09:49;6.70;;;6.37;;
14030;SDS011;7090;49.436;8.490;2023-03-31T17:12:16;6.20;;;5.90;;
14030;SDS011;7090;49.436;8.490;2023-03-31T17:14:41;10.03;;;7.27;;
14030;SDS011;7090;49.436;8.490;2023-03-31T17:17:07;7.43;;;6.73;;
14030;SDS011;7090;49.436;8.490;2023-03-31T17:19:32;6.30;;;6.00;;
14030;SDS011;7090;49.436;8.490;2023-03-31T17:21:58;6.93;;;6.53;;
14030;SDS011;7090;49.436;8.490;2023-03-31T17:24:27;7.20;;;6.80;;
14030;SDS011;7090;49.436;8.490;2023-03-31T17:26:53;7.17;;;6.73;;
14030;SDS011;7090;49.436;8.490;2023-03-31T17:29:19;7.10;;;6.70;;
14030;SDS011;7090;49.436;8.490;2023-03-31T17:31:44;7.30;;;6.80;;
14030;SDS011;7090;49.436;8.490;2023-03-31T17:34:10;6.80;;;6.50;;
14030;SDS011;7090;49.436;8.490;2023-03-31T17:36:36;7.57;;;6.97;;
14030;SDS011;7090;49.436;8.490;2023-03-31T17:39:02;6.70;;;6.40;;
14030;SDS011;7090;49.436;8.490;2023-03-31T17:41:29;7.43;;;6.93;;
14030;SDS011;7090;49.436;8.490;2023-03-31T17:43:55;7.10;;;6.80;;
14030;SDS011;7090;49.436;8.490;2023-03-31T17:46:21;6.53;;;6.30;;
14030;SDS011;7090;49.436;8.490;2023-03-31T17:48:48;6.00;;;5.80;;
14030;SDS011;7090;49.436;8.490;2023-03-31T17:51:15;7.50;;;7.10;;
14030;SDS011;7090;49.436;8.490;2023-03-31T17:53:43;6.47;;;6.18;;
14030;SDS011;7090;49.436;8.490;2023-03-31T17:56:10;6.60;;;6.20;;
14030;SDS011;7090;49.436;8.490;2023-03-31T17:58:36;10.57;;;7.97;;
14030;SDS011;7090;49.436;8.490;2023-03-31T18:01:03;6.00;;;5.60;;
14030;SDS011;7090;49.436;8.490;2023-03-31T18:03:32;6.67;;;6.37;;
14030;SDS011;7090;49.436;8.490;2023-03-31T18:06:03;6.60;;;6.30;;
14030;SDS011;7090;49.436;8.490;2023-03-31T18:08:35;6.60;;;6.20;;
14030;SDS011;7090;49.436;8.490;2023-03-31T18:11:01;9.33;;;7.70;;
14030;SDS011;7090;49.436;8.490;2023-03-31T18:13:29;6.60;;;6.30;;
14030;SDS011;7090;49.436;8.490;2023-03-31T18:15:56;7.17;;;6.73;;
14030;SDS011;7090;49.436;8.490;2023-03-31T18:18:22;7.20;;;6.50;;
14030;SDS011;7090;49.436;8.490;2023-03-31T18:20:50;6.27;;;6.07;;
14030;SDS011;7090;49.436;8.490;2023-03-31T18:23:16;7.40;;;6.90;;